createdAt,value
2023-05-01T00:02:06.032Z,0.39
2023-05-01T00:05:28.893Z,0.32
2023-05-01T00:08:51.042Z,0.34
2023-05-01T00:12:13.146Z,0.30
2023-05-01T00:15:34.939Z,0.19
2023-05-01T00:18:58.006Z,0.25
2023-05-01T00:22:20.150Z,0.22
2023-05-01T00:25:42.536Z,0.18
2023-05-01T00:29:04.252Z,0.13
2023-05-01T00:32:25.971Z,0.11
2023-05-01T00:35:49.350Z,0.06
2023-05-01T00:39:11.636Z,0.03
2023-05-01T00:42:36.583Z,-0.03
2023-05-01T00:45:58.267Z,-0.06
2023-05-01T00:49:20.030Z,-0.10
2023-05-01T00:52:43.170Z,-0.12
2023-05-01T00:56:05.648Z,-0.15
2023-05-01T00:59:27.844Z,-0.19
2023-05-01T01:02:50.597Z,-0.23
2023-05-01T01:06:22.725Z,-0.26
2023-05-01T01:10:00.630Z,-0.28
2023-05-01T01:13:30.285Z,-0.30
2023-05-01T01:16:56.329Z,-0.34
2023-05-01T01:20:32.512Z,-0.44
2023-05-01T01:24:27.959Z,-0.45
2023-05-01T01:28:18.323Z,-0.49
2023-05-01T01:31:53.018Z,-0.50
2023-05-01T01:35:21.029Z,-0.52
2023-05-01T01:38:48.251Z,-0.58
2023-05-01T01:42:14.952Z,-0.61
2023-05-01T01:45:41.185Z,-0.60
2023-05-01T01:49:07.765Z,-0.64
2023-05-01T01:52:32.662Z,-0.67
2023-05-01T01:55:57.504Z,-0.71
2023-05-01T01:59:21.332Z,-0.74
2023-05-01T02:02:44.361Z,-0.73
2023-05-01T02:06:08.082Z,-0.75
2023-05-01T02:09:32.175Z,-0.77
2023-05-01T02:12:56.480Z,-0.78
2023-05-01T02:16:20.144Z,-0.78
2023-05-01T02:19:43.613Z,-0.78
2023-05-01T02:23:07.913Z,-0.81
2023-05-01T02:26:32.976Z,-0.82
2023-05-01T02:29:55.112Z,-0.79
2023-05-01T02:33:17.141Z,-0.80
2023-05-01T02:36:38.978Z,-0.78
2023-05-01T02:40:00.881Z,-0.79
2023-05-01T02:43:25.072Z,-0.79
2023-05-01T02:46:49.835Z,-0.80
2023-05-01T02:50:12.323Z,-0.82
2023-05-01T02:53:35.317Z,-0.85
2023-05-01T02:56:58.450Z,-0.82
2023-05-01T03:00:22.615Z,-0.83
2023-05-01T03:03:44.460Z,-0.80
2023-05-01T03:07:00.410Z,-0.77
2023-05-01T03:10:22.502Z,-0.72
2023-05-01T03:13:44.857Z,-0.66
2023-05-01T03:17:08.137Z,-0.59
2023-05-01T03:20:30.120Z,-0.53
2023-05-01T03:23:51.982Z,-0.44
2023-05-01T03:27:13.736Z,-0.35
2023-05-01T03:30:36.424Z,-0.17
2023-05-01T03:33:59.923Z,-0.02
2023-05-01T03:37:21.988Z,0.28
2023-05-01T03:40:43.742Z,0.50
2023-05-01T03:44:05.435Z,0.68
2023-05-01T03:47:27.692Z,0.98
2023-05-01T03:50:51.066Z,1.14
2023-05-01T03:54:12.957Z,1.43
2023-05-01T03:57:35.112Z,1.66
2023-05-01T04:01:00.884Z,1.91
2023-05-01T04:04:22.658Z,2.15
2023-05-01T04:07:45.877Z,2.41
2023-05-01T04:11:07.744Z,2.67
2023-05-01T04:14:29.669Z,2.88
2023-05-01T04:17:51.566Z,2.89
2023-05-01T04:21:14.698Z,3.24
2023-05-01T04:24:38.174Z,3.44
2023-05-01T04:28:00.192Z,3.60
2023-05-01T04:31:22.151Z,3.82
2023-05-01T04:34:45.242Z,3.96
2023-05-01T04:38:07.585Z,4.08
2023-05-01T04:41:30.735Z,4.26
2023-05-01T04:44:52.855Z,4.50
2023-05-01T04:48:14.891Z,4.70
2023-05-01T04:51:36.669Z,4.83
2023-05-01T04:54:58.606Z,4.98
2023-05-01T04:58:21.848Z,5.11
2023-05-01T05:01:43.733Z,5.25
2023-05-01T05:05:06.128Z,5.43
2023-05-01T05:08:27.980Z,5.60
2023-05-01T05:11:49.930Z,5.79
2023-05-01T05:15:13.556Z,5.99
2023-05-01T05:18:35.647Z,6.18
2023-05-01T05:21:57.399Z,6.26
2023-05-01T05:25:19.681Z,6.41
2023-05-01T05:28:42.097Z,6.57
2023-05-01T05:32:06.329Z,6.82
2023-05-01T05:35:28.572Z,6.97
2023-05-01T05:38:50.256Z,7.03
2023-05-01T05:42:12.599Z,7.18
2023-05-01T05:45:35.774Z,7.26
2023-05-01T05:48:59.159Z,7.38
2023-05-01T05:52:21.326Z,7.56
2023-05-01T05:55:43.595Z,7.72
2023-05-01T05:59:06.631Z,7.96
2023-05-01T06:02:28.590Z,7.94
2023-05-01T06:05:51.847Z,8.01
2023-05-01T06:09:14.888Z,8.02
2023-05-01T06:12:38.333Z,8.11
2023-05-01T06:16:04.950Z,8.15
2023-05-01T06:19:26.998Z,8.34
2023-05-01T06:22:51.256Z,8.43
2023-05-01T06:26:13.210Z,8.21
2023-05-01T06:29:35.124Z,8.14
2023-05-01T06:32:57.177Z,8.21
2023-05-01T06:36:19.250Z,8.29
2023-05-01T06:39:42.735Z,8.41
2023-05-01T06:43:05.889Z,8.57
2023-05-01T06:46:27.874Z,8.62
2023-05-01T06:49:49.657Z,8.80
2023-05-01T06:53:11.738Z,8.85
2023-05-01T06:56:34.873Z,9.05
2023-05-01T06:59:57.222Z,9.21
2023-05-01T07:03:19.209Z,9.51
2023-05-01T07:06:40.811Z,9.71
2023-05-01T07:10:02.895Z,9.93
2023-05-01T07:13:26.526Z,10.07
2023-05-01T07:16:48.570Z,10.20
2023-05-01T07:20:12.279Z,10.19
2023-05-01T07:23:34.081Z,10.16
2023-05-01T07:26:56.709Z,10.07
2023-05-01T07:30:20.594Z,10.12
2023-05-01T07:33:43.004Z,10.17
2023-05-01T07:37:05.233Z,10.27
2023-05-01T07:40:27.176Z,10.27
2023-05-01T07:43:49.254Z,10.42
2023-05-01T07:47:12.734Z,10.44
2023-05-01T07:50:35.045Z,10.48
2023-05-01T07:53:56.991Z,10.29
2023-05-01T07:57:19.121Z,10.83
2023-05-01T08:00:41.170Z,10.93
2023-05-01T08:04:04.455Z,10.95
2023-05-01T08:07:26.375Z,10.79
2023-05-01T08:10:48.730Z,10.86
2023-05-01T08:14:10.838Z,11.00
2023-05-01T08:17:32.845Z,11.22
2023-05-01T08:20:55.879Z,11.43
2023-05-01T08:24:17.996Z,11.61
2023-05-01T08:27:40.216Z,11.53
2023-05-01T08:31:02.258Z,11.34
2023-05-01T08:34:24.266Z,11.10
2023-05-01T08:37:47.487Z,10.95
2023-05-01T08:41:10.395Z,10.86
2023-05-01T08:44:33.521Z,11.05
2023-05-01T08:47:56.901Z,11.28
2023-05-01T08:51:23.157Z,11.64
2023-05-01T08:54:47.380Z,11.86
2023-05-01T08:58:11.146Z,12.20
2023-05-01T09:01:34.965Z,12.28
2023-05-01T09:04:57.112Z,12.24
2023-05-01T09:08:19.022Z,12.37
2023-05-01T09:11:44.937Z,12.55
2023-05-01T09:15:08.451Z,12.60
2023-05-01T09:18:31.331Z,12.45
2023-05-01T09:21:54.490Z,12.26
2023-05-01T09:25:16.548Z,12.33
2023-05-01T09:28:43.923Z,12.48
2023-05-01T09:32:16.506Z,12.36
2023-05-01T09:35:53.839Z,12.40
2023-05-01T09:39:24.251Z,12.82
2023-05-01T09:42:51.657Z,12.84
2023-05-01T09:46:14.872Z,12.61
2023-05-01T09:49:47.401Z,12.55
2023-05-01T09:53:09.442Z,12.68
2023-05-01T09:56:32.765Z,12.67
2023-05-01T10:00:08.718Z,12.45
2023-05-01T10:03:32.062Z,12.40
2023-05-01T10:06:54.287Z,12.54
2023-05-01T10:10:20.352Z,12.52
2023-05-01T10:13:42.353Z,12.30
2023-05-01T10:17:18.597Z,11.80
2023-05-01T10:20:42.140Z,11.61
2023-05-01T10:24:07.510Z,11.46
2023-05-01T10:27:29.674Z,11.37
2023-05-01T10:30:51.602Z,11.55
2023-05-01T10:34:19.198Z,11.78
2023-05-01T10:37:48.800Z,11.86
2023-05-01T10:41:10.868Z,11.98
2023-05-01T10:44:34.250Z,11.88
2023-05-01T10:47:56.343Z,11.87
2023-05-01T10:51:20.638Z,11.97
2023-05-01T10:54:43.886Z,12.14
2023-05-01T10:58:06.058Z,11.90
2023-05-01T11:01:33.197Z,11.51
2023-05-01T11:04:56.568Z,11.49
2023-05-01T11:08:31.048Z,11.57
2023-05-01T11:11:54.631Z,11.69
2023-05-01T11:15:27.390Z,11.83
2023-05-01T11:18:49.210Z,11.94
2023-05-01T11:22:13.689Z,12.03
2023-05-01T11:25:35.418Z,12.15
2023-05-01T11:29:02.349Z,12.16
2023-05-01T11:32:28.275Z,12.25
2023-05-01T11:35:59.411Z,12.23
2023-05-01T11:39:22.318Z,12.21
2023-05-01T11:42:44.050Z,12.21
2023-05-01T11:46:07.377Z,12.17
2023-05-01T11:49:29.872Z,12.17
2023-05-01T11:52:53.819Z,12.21
2023-05-01T11:56:26.999Z,12.23
2023-05-01T11:59:50.143Z,12.25
2023-05-01T12:03:15.124Z,12.20
2023-05-01T12:06:40.712Z,12.24
2023-05-01T12:10:02.919Z,12.23
2023-05-01T12:13:25.484Z,12.12
2023-05-01T12:16:48.553Z,12.05
2023-05-01T12:20:12.922Z,11.89
2023-05-01T12:23:37.543Z,11.87
2023-05-01T12:27:03.656Z,11.96
2023-05-01T12:30:29.831Z,11.95
2023-05-01T12:33:56.799Z,11.94
2023-05-01T12:37:20.080Z,12.13
2023-05-01T12:40:51.771Z,12.28
2023-05-01T12:44:22.540Z,12.50
2023-05-01T12:47:44.499Z,12.57
2023-05-01T12:51:07.711Z,12.66
2023-05-01T12:54:32.515Z,12.54
2023-05-01T12:57:55.549Z,12.60
2023-05-01T13:01:26.174Z,12.74
2023-05-01T13:04:49.482Z,12.74
2023-05-01T13:08:11.346Z,12.61
2023-05-01T13:11:34.377Z,12.78
2023-05-01T13:14:56.871Z,12.80
2023-05-01T13:18:19.017Z,12.81
2023-05-01T13:21:49.058Z,12.72
2023-05-01T13:25:18.474Z,12.68
2023-05-01T13:28:46.364Z,12.71
2023-05-01T13:32:12.228Z,12.73
2023-05-01T13:35:34.360Z,12.82
2023-05-01T13:38:57.912Z,12.89
2023-05-01T13:42:25.156Z,12.66
2023-05-01T13:45:48.441Z,12.69
2023-05-01T13:49:10.356Z,12.73
2023-05-01T13:52:32.447Z,12.88
2023-05-01T13:55:54.388Z,12.97
2023-05-01T13:59:17.488Z,13.04
2023-05-01T14:02:47.684Z,13.01
2023-05-01T14:06:11.347Z,12.66
2023-05-01T14:09:37.295Z,12.69
2023-05-01T14:13:00.155Z,12.66
2023-05-01T14:16:25.997Z,12.56
2023-05-01T14:19:53.337Z,12.55
2023-05-01T14:23:17.047Z,12.57
2023-05-01T14:26:43.064Z,12.68
2023-05-01T14:30:08.413Z,12.76
2023-05-01T14:33:30.389Z,12.86
2023-05-01T14:36:56.487Z,13.00
2023-05-01T14:40:20.027Z,13.01
2023-05-01T14:43:44.593Z,12.98
2023-05-01T14:47:10.810Z,12.94
2023-05-01T14:50:32.829Z,12.84
2023-05-01T14:53:56.430Z,12.66
2023-05-01T14:57:18.574Z,12.54
2023-05-01T15:00:40.371Z,12.42
2023-05-01T15:04:03.591Z,12.32
2023-05-01T15:07:26.004Z,11.94
2023-05-01T15:10:49.445Z,11.91
2023-05-01T15:14:11.412Z,11.73
2023-05-01T15:17:33.545Z,11.55
2023-05-01T15:20:55.200Z,11.30
2023-05-01T15:24:16.895Z,11.11
2023-05-01T15:27:40.130Z,10.87
2023-05-01T15:31:02.317Z,10.68
2023-05-01T15:34:24.758Z,10.45
2023-05-01T15:37:47.429Z,10.30
2023-05-01T15:41:09.590Z,10.20
2023-05-01T15:44:32.947Z,10.16
2023-05-01T15:47:54.818Z,10.04
2023-05-01T15:51:17.017Z,10.01
2023-05-01T15:54:38.878Z,9.90
2023-05-01T15:58:00.732Z,9.79
2023-05-01T16:01:23.999Z,9.75
2023-05-01T16:04:47.969Z,9.65
2023-05-01T16:08:09.989Z,9.59
2023-05-01T16:11:32.740Z,9.50
2023-05-01T16:14:54.876Z,9.42
2023-05-01T16:18:21.261Z,9.34
2023-05-01T16:21:43.668Z,9.16
2023-05-01T16:25:06.134Z,8.94
2023-05-01T16:28:28.394Z,8.92
2023-05-01T16:31:50.241Z,8.90
2023-05-01T16:35:18.116Z,8.82
2023-05-01T16:38:39.659Z,8.79
2023-05-01T16:42:01.751Z,8.74
2023-05-01T16:45:23.554Z,8.69
2023-05-01T16:48:45.553Z,8.66
2023-05-01T16:52:13.509Z,8.60
2023-05-01T16:55:35.690Z,8.47
2023-05-01T16:58:57.550Z,8.39
2023-05-01T17:02:20.149Z,8.35
2023-05-01T17:05:42.538Z,8.30
2023-05-01T17:09:06.504Z,8.26
2023-05-01T17:12:29.417Z,8.26
2023-05-01T17:15:52.734Z,8.16
2023-05-01T17:19:14.446Z,8.09
2023-05-01T17:22:36.288Z,8.04
2023-05-01T17:25:59.530Z,7.88
2023-05-01T17:29:21.480Z,7.93
2023-05-01T17:32:43.488Z,7.84
2023-05-01T17:36:05.636Z,7.81
2023-05-01T17:39:28.328Z,7.75
2023-05-01T17:42:51.622Z,7.72
2023-05-01T17:46:14.264Z,7.70
2023-05-01T17:49:36.273Z,7.65
2023-05-01T17:52:58.098Z,7.45
2023-05-01T17:56:20.165Z,7.40
2023-05-01T17:59:43.613Z,7.38
2023-05-01T18:03:06.354Z,7.35
2023-05-01T18:06:28.311Z,7.04
2023-05-01T18:09:49.946Z,7.12
2023-05-01T18:13:12.604Z,7.10
2023-05-01T18:16:36.089Z,7.04
2023-05-01T18:19:58.394Z,6.94
2023-05-01T18:23:20.487Z,6.88
2023-05-01T18:26:42.709Z,6.80
2023-05-01T18:30:04.752Z,6.68
2023-05-01T18:33:28.159Z,6.51
2023-05-01T18:36:52.354Z,6.42
2023-05-01T18:40:14.657Z,6.27
2023-05-01T18:43:36.770Z,6.30
2023-05-01T18:46:58.574Z,6.27
2023-05-01T18:50:23.156Z,6.15
2023-05-01T18:53:45.072Z,6.22
2023-05-01T18:57:07.109Z,6.21
2023-05-01T19:00:29.341Z,6.19
2023-05-01T19:03:51.446Z,6.22
2023-05-01T19:07:15.259Z,6.20
2023-05-01T19:10:38.070Z,6.15
2023-05-01T19:14:00.253Z,6.13
2023-05-01T19:17:22.206Z,6.08
2023-05-01T19:20:45.912Z,6.04
2023-05-01T19:24:09.449Z,5.98
2023-05-01T19:27:34.712Z,6.03
2023-05-01T19:30:57.696Z,6.01
2023-05-01T19:34:20.117Z,5.99
2023-05-01T19:37:42.354Z,5.99
2023-05-01T19:41:05.499Z,5.96
2023-05-01T19:44:29.131Z,5.95
2023-05-01T19:47:51.556Z,5.95
2023-05-01T19:51:13.803Z,5.94
2023-05-01T19:54:35.871Z,5.92
2023-05-01T19:58:00.046Z,5.86
2023-05-01T20:01:22.249Z,5.88
2023-05-01T20:04:44.498Z,5.86
2023-05-01T20:08:06.924Z,5.87
2023-05-01T20:11:28.850Z,5.83
2023-05-01T20:14:52.608Z,5.83
2023-05-01T20:18:14.831Z,5.80
2023-05-01T20:21:37.003Z,5.81
2023-05-01T20:24:59.388Z,5.60
2023-05-01T20:28:21.875Z,5.79
2023-05-01T20:31:45.163Z,5.79
2023-05-01T20:35:08.057Z,5.78
2023-05-01T20:38:30.098Z,5.78
2023-05-01T20:41:52.337Z,5.78
2023-05-01T20:45:14.267Z,5.77
2023-05-01T20:48:37.868Z,5.76
2023-05-01T20:51:59.493Z,5.76
2023-05-01T20:55:21.806Z,5.76
2023-05-01T20:58:43.718Z,5.76
2023-05-01T21:02:05.981Z,5.67
2023-05-01T21:05:29.395Z,5.75
2023-05-01T21:08:51.064Z,5.76
2023-05-01T21:12:12.976Z,5.72
2023-05-01T21:15:35.121Z,5.69
2023-05-01T21:18:56.925Z,5.67
2023-05-01T21:22:22.930Z,5.66
2023-05-01T21:25:44.987Z,5.55
2023-05-01T21:29:06.745Z,5.66
2023-05-01T21:32:32.637Z,5.67
2023-05-01T21:35:54.422Z,5.65
2023-05-01T21:39:17.537Z,5.63
2023-05-01T21:42:41.054Z,5.61
2023-05-01T21:46:03.128Z,5.58
2023-05-01T21:49:27.139Z,5.60
2023-05-01T21:52:49.993Z,5.57
2023-05-01T21:56:15.390Z,5.60
2023-05-01T21:59:38.658Z,5.62
2023-05-01T22:03:00.951Z,5.60
2023-05-01T22:06:24.450Z,5.64
2023-05-01T22:09:46.217Z,5.62
2023-05-01T22:13:09.364Z,5.65
2023-05-01T22:16:31.399Z,5.67
2023-05-01T22:19:53.510Z,5.67
2023-05-01T22:23:15.608Z,5.70
2023-05-01T22:26:37.714Z,5.68
2023-05-01T22:30:01.377Z,5.68
2023-05-01T22:33:23.264Z,5.65
2023-05-01T22:36:45.002Z,5.61
2023-05-01T22:40:08.152Z,5.59
2023-05-01T22:43:30.223Z,5.57
2023-05-01T22:46:53.700Z,5.57
2023-05-01T22:50:16.122Z,5.54
2023-05-01T22:53:38.194Z,5.58
2023-05-01T22:56:59.980Z,5.59
2023-05-01T23:00:23.530Z,5.61
2023-05-01T23:03:47.784Z,5.63
2023-05-01T23:07:10.685Z,5.62
2023-05-01T23:10:33.881Z,5.63
2023-05-01T23:13:56.493Z,5.65
2023-05-01T23:17:19.353Z,5.65
2023-05-01T23:20:45.528Z,5.71
2023-05-01T23:24:08.650Z,5.71
2023-05-01T23:27:35.501Z,5.56
2023-05-01T23:30:59.379Z,5.80
2023-05-01T23:34:21.933Z,5.84
2023-05-01T23:37:46.423Z,5.87
2023-05-01T23:41:09.540Z,5.87
2023-05-01T23:44:32.486Z,5.88
2023-05-01T23:47:55.270Z,5.87
2023-05-01T23:51:17.965Z,5.87
2023-05-01T23:54:42.254Z,5.87
2023-05-01T23:58:05.214Z,5.85
